Pagina principale
METAR-TAF:

METAR-TAF

Aeroporti :

Teodo, Montenegro

latitudine: 42-24N, longitudine: 018-44E, altezza: 5 m

Osservazione

Il bollettino è stato emesso 12 minuti fa, alle 11:30 UTC
Vento 4 kt da ovest, variando fra sud e nord/nord-ovest
Temperature 20°C
Umidità 46%
Pressione 1019 hPa
Visibilità 10 km o più
nessuna nube inferiore a 1500 m e nessun cumulonembo

METAR: LYTV 261130Z 26004KT 170V340 CAVOK 20/08 Q1019 NOSIG

Ora: 13:42 (11:42 UTC)

Previsione

Il bollettino è stato emesso 42 minuti fa, alle 11:00 UTC
Previsione valida dal 26 alle 12 UTC al 27 alle 12 UTC
Vento 8 kt da ovest/sud-ovest
Visibilità 10 km o più
nessuna nube inferiore a 1500 m e nessun cumulonembo
Temporaneamente
dal 26 alle 21 UTC al 27 alle 05 UTC
Vento 12 kt da nord/nord-est

TAF: LYTV 261100Z 2612/2712 25008KT CAVOK TX21/2612Z TN08/2703Z TEMPO 2621/2705 02012KT

Osservazioni e previsioni meteorologiche di più di 4000 aeroporti (messaggi METAR e TAF).

Le stazioni disponibili sono rappresentate dai dischi gialli e rossi sulla carta.

Puntare il mouse per vedere il nome della stazione.

Clicca sopra per visualizzare le osservazioni e previsioni meteorologiche.

Per cambiare la mappa : fare clic sui pulsanti verdi con una croce nera per ingrandire, il pulsante verde con un trattino per diminuire, o sulla freccia verde per le mappe adiacenti.


METAR-TAF: